Time;durP1;ratioP1;P1;durP2;ratioP2;P2;SDS_P1;SDS_P2;PMS_P1;PMS_P2;Temp;Humidity;BMP_temperature;BMP_pressure;BME280_temperature;BME280_humidity;BME280_pressure;Samples;Min_cycle;Max_cycle;Signal;HPM_P1;HPM_P2
2023/01/04 00:01:01;;;;;;;5.80;3.42;;;;;;;9.32;63.64;98324.28;4939626;28;20189;-76
2023/01/04 00:03:26;;;;;;;5.45;3.35;;;;;;;9.05;64.25;98327.00;4942388;28;20211;-77
2023/01/04 00:05:52;;;;;;;4.63;3.33;;;;;;;9.14;63.80;98320.56;4915165;28;20279;-77
2023/01/04 00:08:17;;;;;;;6.90;3.45;;;;;;;8.93;64.68;98328.66;4910314;28;20200;-76
2023/01/04 00:10:43;;;;;;;4.53;3.15;;;;;;;8.99;64.46;98320.03;4923676;28;20258;-75
2023/01/04 00:13:08;;;;;;;6.20;3.70;;;;;;;8.66;65.68;98307.94;4958772;28;20276;-76
2023/01/04 00:15:34;;;;;;;6.10;3.63;;;;;;;8.68;65.86;98318.13;4945896;28;20639;-76
2023/01/04 00:17:59;;;;;;;5.78;4.07;;;;;;;8.61;65.95;98313.75;4910699;28;20409;-77
2023/01/04 00:20:24;;;;;;;7.72;3.75;;;;;;;8.89;65.31;98314.47;4929583;28;20741;-76
2023/01/04 00:22:50;;;;;;;6.45;3.47;;;;;;;9.02;64.63;98306.63;4939785;28;20625;-76
2023/01/04 00:25:15;;;;;;;12.68;4.18;;;;;;;8.97;64.88;98306.44;4944111;28;20294;-76
2023/01/04 00:27:41;;;;;;;5.82;3.97;;;;;;;8.98;65.07;98297.66;4954494;28;20197;-76
2023/01/04 00:30:07;;;;;;;7.85;4.55;;;;;;;9.00;64.75;98293.84;4962054;28;20318;-76
2023/01/04 00:32:32;;;;;;;6.32;4.47;;;;;;;8.97;65.23;98304.66;4927684;28;20116;-76
2023/01/04 00:34:57;;;;;;;6.82;4.50;;;;;;;8.92;65.12;98301.88;4924301;28;20665;-77
2023/01/04 00:37:23;;;;;;;8.55;4.63;;;;;;;8.80;65.79;98293.13;4962120;28;20268;-76
2023/01/04 00:39:48;;;;;;;8.48;4.43;;;;;;;8.89;65.74;98291.09;4946745;28;20278;-76
2023/01/04 00:42:13;;;;;;;8.15;4.72;;;;;;;9.00;65.32;98291.25;4926750;28;20184;-77
2023/01/04 00:44:39;;;;;;;8.65;4.75;;;;;;;8.84;65.80;98288.31;4944575;28;20273;-75
2023/01/04 00:47:04;;;;;;;9.38;4.70;;;;;;;9.08;65.31;98290.22;4944290;28;20292;-76
2023/01/04 00:49:30;;;;;;;10.88;5.07;;;;;;;8.99;65.57;98275.88;4918650;28;20104;-76
2023/01/04 00:51:56;;;;;;;9.00;4.78;;;;;;;8.71;66.25;98264.00;4945659;28;20297;-76
2023/01/04 00:54:22;;;;;;;8.35;4.63;;;;;;;8.94;65.51;98275.69;4943332;28;20686;-76
2023/01/04 00:56:48;;;;;;;8.55;4.45;;;;;;;8.96;65.61;98265.88;4943852;28;20204;-76
2023/01/04 00:59:15;;;;;;;8.95;4.53;;;;;;;9.02;65.50;98267.66;4943783;28;20334;-76
2023/01/04 01:01:41;;;;;;;9.65;5.10;;;;;;;9.18;64.92;98276.78;4942846;28;20208;-76
2023/01/04 01:04:06;;;;;;;7.47;4.47;;;;;;;9.17;64.64;98264.81;4942298;28;20247;-76
2023/01/04 01:06:33;;;;;;;8.93;4.75;;;;;;;8.69;65.89;98266.00;4944955;28;20195;-76
2023/01/04 01:08:59;;;;;;;8.15;4.38;;;;;;;9.02;65.33;98262.47;4917378;28;20273;-76
2023/01/04 01:11:24;;;;;;;7.53;4.63;;;;;;;9.28;64.43;98264.13;4949657;28;20197;-76
2023/01/04 01:13:50;;;;;;;10.18;4.35;;;;;;;9.07;65.48;98265.25;4968138;28;20287;-76
2023/01/04 01:16:18;;;;;;;8.48;4.50;;;;;;;9.08;65.28;98261.66;4917662;28;20168;-77
2023/01/04 01:18:44;;;;;;;7.25;4.32;;;;;;;9.05;65.40;98259.47;4934377;28;20657;-76
2023/01/04 01:21:19;;;;;;;10.88;4.15;;;;;;;9.01;65.27;98247.88;4934008;28;20280;-75
2023/01/04 01:23:45;;;;;;;5.55;3.75;;;;;;;9.12;64.69;98243.84;4944452;28;20188;-76
2023/01/04 01:26:13;;;;;;;6.93;4.32;;;;;;;9.12;65.21;98247.22;4948941;28;20270;-75
2023/01/04 01:28:38;;;;;;;7.05;3.80;;;;;;;9.08;64.77;98243.47;4945079;28;20162;-76
2023/01/04 01:31:09;;;;;;;6.63;3.67;;;;;;;8.98;65.53;98232.72;4949518;28;20493;-76
2023/01/04 01:33:36;;;;;;;8.00;4.15;;;;;;;8.77;66.73;98242.41;4927933;28;20183;-76
2023/01/04 01:36:03;;;;;;;6.70;4.10;;;;;;;8.73;66.54;98238.63;4930942;28;20707;-75
2023/01/04 01:38:28;;;;;;;7.43;3.67;;;;;;;8.99;65.73;98234.31;4913191;28;20173;-75
2023/01/04 01:41:22;;;;;;;6.63;3.67;;;;;;;9.19;65.47;98224.59;4946723;28;20166;-76
2023/01/04 01:43:48;;;;;;;7.50;4.05;;;;;;;9.12;65.51;98229.03;4949185;28;20207;-76
2023/01/04 01:46:13;;;;;;;8.10;4.22;;;;;;;9.29;64.47;98224.16;4931116;28;20216;-76
2023/01/04 01:48:40;;;;;;;7.25;3.95;;;;;;;9.00;65.52;98212.53;4965273;28;20220;-76
2023/01/04 01:51:05;;;;;;;6.43;4.03;;;;;;;9.23;64.91;98217.19;4945227;28;20212;-75
2023/01/04 01:53:37;;;;;;;6.55;4.00;;;;;;;9.02;65.63;98220.91;4934527;28;20287;-76
2023/01/04 01:56:04;;;;;;;5.20;3.75;;;;;;;8.60;67.02;98213.50;4933094;28;20284;-76
2023/01/04 01:58:33;;;;;;;6.35;3.85;;;;;;;9.22;65.20;98204.41;4912629;28;20189;-75
2023/01/04 02:00:58;;;;;;;7.43;3.80;;;;;;;9.08;65.35;98203.69;4960595;28;20223;-76
2023/01/04 02:03:30;;;;;;;5.80;3.60;;;;;;;9.08;65.49;98201.91;4940216;28;20190;-76
2023/01/04 02:05:56;;;;;;;6.47;4.10;;;;;;;9.30;64.67;98204.94;4928749;28;20281;-76
2023/01/04 02:08:22;;;;;;;6.07;3.65;;;;;;;9.44;64.35;98197.88;4935944;28;20208;-76
2023/01/04 02:10:48;;;;;;;6.90;3.83;;;;;;;9.36;64.11;98204.09;4917488;28;20188;-76
2023/01/04 02:13:16;;;;;;;7.47;3.47;;;;;;;9.51;64.08;98196.00;4933141;28;20200;-76
2023/01/04 02:16:06;;;;;;;6.20;3.50;;;;;;;9.59;63.67;98201.94;4951703;28;20276;-75
2023/01/04 02:18:38;;;;;;;7.68;4.32;;;;;;;9.38;65.13;98202.09;4930574;28;20687;-76
2023/01/04 02:21:20;;;;;;;5.07;3.03;;;;;;;9.41;64.67;98205.28;4933095;28;20586;-75
2023/01/04 02:23:57;;;;;;;7.10;3.95;;;;;;;9.63;63.89;98208.31;4950555;28;20208;-76
2023/01/04 02:26:41;;;;;;;6.22;3.50;;;;;;;9.77;63.50;98196.81;4950990;28;20235;-77
2023/01/04 02:29:28;;;;;;;5.38;3.38;;;;;;;10.00;63.07;98188.38;4953461;28;20242;-77
2023/01/04 02:31:56;;;;;;;6.85;3.53;;;;;;;9.51;64.32;98179.59;4946374;28;20360;-76
2023/01/04 02:34:46;;;;;;;7.65;3.33;;;;;;;9.55;63.95;98178.97;4925975;28;20190;-76
2023/01/04 02:37:34;;;;;;;6.30;2.97;;;;;;;9.52;64.27;98176.78;4944921;28;20205;-76
2023/01/04 02:40:07;;;;;;;5.15;2.83;;;;;;;9.34;65.01;98174.16;4960071;28;20228;-76
2023/01/04 02:46:13;;;;;;;7.68;3.63;;;;;;;9.66;64.49;98168.88;4947144;28;20701;-77
2023/01/04 02:51:30;;;;;;;5.72;3.13;;;;;;;9.50;64.75;98146.81;4924287;28;20204;-76
2023/01/04 02:53:58;;;;;;;4.97;2.70;;;;;;;9.47;64.89;98148.03;4931450;28;20245;-76
2023/01/04 02:56:39;;;;;;;5.38;2.67;;;;;;;9.42;65.06;98140.06;4946542;28;20157;-76
2023/01/04 02:59:20;;;;;;;6.70;3.85;;;;;;;9.39;65.31;98143.13;4944251;28;20292;-76
2023/01/04 03:08:39;;;;;;;6.95;2.50;;;;;;;9.97;63.00;98123.75;4937667;28;20173;-76
2023/01/04 03:13:55;;;;;;;5.18;2.72;;;;;;;9.74;63.53;98116.59;4953223;28;20126;-77
2023/01/04 03:16:22;;;;;;;5.78;2.67;;;;;;;9.66;64.18;98124.69;4948767;28;20272;-76
2023/01/04 03:18:50;;;;;;;6.18;2.53;;;;;;;9.85;63.84;98117.69;4933857;28;20170;-77
2023/01/04 03:21:17;;;;;;;3.63;2.28;;;;;;;9.55;64.23;98119.16;4929347;28;20278;-75
2023/01/04 03:35:26;;;;;;;5.60;2.55;;;;;;;9.62;63.79;98110.53;4936448;28;20283;-76
2023/01/04 03:49:47;;;;;;;4.15;2.60;;;;;;;9.81;63.49;98090.53;4939624;28;20208;-76
2023/01/04 03:52:13;;;;;;;4.57;2.13;;;;;;;9.52;63.88;98085.78;4946717;28;20158;-75
2023/01/04 03:54:41;;;;;;;4.72;2.92;;;;;;;9.78;63.72;98089.13;4947406;28;20216;-77
2023/01/04 03:57:08;;;;;;;3.88;2.58;;;;;;;9.60;64.06;98083.94;4948152;28;20240;-76
2023/01/04 03:59:40;;;;;;;6.57;2.20;;;;;;;9.83;63.32;98088.50;4942402;28;20199;-76
2023/01/04 04:02:12;;;;;;;4.68;2.28;;;;;;;9.68;63.60;98079.25;4948885;28;20591;-76
2023/01/04 04:10:07;;;;;;;5.22;3.00;;;;;;;9.55;63.49;98067.16;4960009;28;20651;-76
2023/01/04 04:12:32;;;;;;;3.88;2.00;;;;;;;9.73;62.95;98073.41;4947625;28;20293;-76
2023/01/04 04:14:57;;;;;;;5.32;2.50;;;;;;;9.60;63.34;98063.94;4956206;28;20638;-76
2023/01/04 04:17:23;;;;;;;6.32;1.73;;;;;;;9.80;63.09;98058.53;4966910;28;20611;-76
2023/01/04 04:19:48;;;;;;;4.13;2.15;;;;;;;9.55;63.80;98061.97;4948577;28;20356;-76
2023/01/04 04:22:13;;;;;;;6.05;2.05;;;;;;;9.69;63.49;98061.84;4948245;28;20200;-77
2023/01/04 04:24:39;;;;;;;2.92;1.80;;;;;;;9.82;62.44;98064.31;4948041;28;20278;-75
2023/01/04 04:27:04;;;;;;;5.00;2.08;;;;;;;9.60;63.35;98063.16;4928421;28;20403;-76
2023/01/04 04:29:29;;;;;;;5.00;1.95;;;;;;;9.82;62.64;98061.72;4946624;28;20575;-76
2023/01/04 04:31:55;;;;;;;6.78;2.33;;;;;;;9.77;63.03;98066.75;4937593;28;20646;-76
2023/01/04 04:34:20;;;;;;;4.15;2.10;;;;;;;9.96;62.16;98056.34;4940943;28;20774;-76
2023/01/04 04:36:45;;;;;;;3.70;2.10;;;;;;;9.75;63.25;98053.19;4966279;28;20212;-76
2023/01/04 04:39:11;;;;;;;3.35;2.15;;;;;;;9.64;63.20;98043.50;4964131;28;20216;-76
2023/01/04 04:41:37;;;;;;;6.85;3.25;;;;;;;9.55;63.72;98040.38;4961145;28;20205;-75
2023/01/04 04:44:14;;;;;;;4.45;2.47;;;;;;;9.97;62.63;98037.91;4931049;28;20286;-77
2023/01/04 04:46:40;;;;;;;3.47;1.77;;;;;;;9.92;62.46;98048.16;4936902;28;20184;-76
2023/01/04 04:49:06;;;;;;;3.47;1.90;;;;;;;10.04;61.83;98051.66;4936193;28;20331;-76
2023/01/04 04:51:32;;;;;;;3.97;1.83;;;;;;;9.97;62.47;98045.72;4952824;28;20444;-77
2023/01/04 04:53:57;;;;;;;5.50;2.00;;;;;;;9.97;62.22;98058.72;4935663;28;20216;-76
2023/01/04 04:56:22;;;;;;;3.55;1.90;;;;;;;10.06;62.45;98059.25;4933139;28;20287;-76
2023/01/04 04:58:48;;;;;;;4.85;1.90;;;;;;;10.03;62.32;98051.88;4969116;28;20265;-76
2023/01/04 05:01:14;;;;;;;4.57;2.15;;;;;;;9.61;63.88;98054.31;4935185;28;20192;-76
2023/01/04 05:03:39;;;;;;;5.35;2.35;;;;;;;9.94;62.73;98052.16;4945074;28;20212;-76
2023/01/04 05:06:05;;;;;;;4.88;2.40;;;;;;;9.54;64.30;98044.00;4947938;28;20309;-76
2023/01/04 05:08:30;;;;;;;5.25;1.77;;;;;;;9.54;63.88;98051.78;4934510;28;20161;-75
2023/01/04 05:10:55;;;;;;;6.18;2.72;;;;;;;9.91;62.55;98052.59;4950898;28;20368;-76
2023/01/04 05:13:21;;;;;;;3.25;1.75;;;;;;;9.66;63.39;98038.88;4932040;28;20225;-76
2023/01/04 05:15:48;;;;;;;6.65;2.75;;;;;;;9.62;63.96;98035.91;4916794;28;20235;-74
2023/01/04 05:18:15;;;;;;;4.47;1.80;;;;;;;9.66;63.91;98041.47;4951347;28;20544;-76
2023/01/04 05:20:40;;;;;;;3.72;2.00;;;;;;;9.62;64.07;98043.72;4968622;28;20208;-76
2023/01/04 05:23:06;;;;;;;5.78;2.13;;;;;;;9.88;63.37;98036.63;4934322;28;20587;-76
2023/01/04 05:25:32;;;;;;;4.25;2.10;;;;;;;9.91;63.78;98047.38;4935533;28;20263;-75
2023/01/04 05:27:57;;;;;;;5.15;2.13;;;;;;;9.69;64.33;98030.63;4934441;28;20701;-76
2023/01/04 05:33:07;;;;;;;3.63;2.00;;;;;;;9.25;66.80;98030.66;4932882;28;20205;-75
2023/01/04 05:35:33;;;;;;;4.38;1.83;;;;;;;9.68;65.14;98035.06;4935406;28;20037;-76
2023/01/04 05:37:58;;;;;;;5.35;2.30;;;;;;;9.23;67.41;98018.91;4915045;28;20675;-76
2023/01/04 05:40:24;;;;;;;5.72;2.55;;;;;;;9.56;65.84;98027.19;4935328;28;20298;-75
2023/01/04 05:42:49;;;;;;;3.90;1.92;;;;;;;9.52;66.42;98023.41;4920452;28;20325;-74
2023/01/04 05:45:16;;;;;;;3.72;2.55;;;;;;;9.22;67.43;98014.72;4951673;28;20185;-74
2023/01/04 05:47:41;;;;;;;4.72;2.50;;;;;;;9.42;66.69;97999.72;4949715;28;20406;-75
2023/01/04 05:50:07;;;;;;;5.95;2.20;;;;;;;9.72;65.63;97999.00;4917012;28;20405;-76
2023/01/04 05:52:33;;;;;;;6.85;2.30;;;;;;;9.55;66.66;98004.00;4946021;28;20633;-74
2023/01/04 05:54:58;;;;;;;3.60;1.77;;;;;;;9.28;67.47;98004.25;4932289;28;20317;-75
2023/01/04 05:57:24;;;;;;;5.95;2.28;;;;;;;9.66;66.71;98002.47;4941187;28;20290;-74
2023/01/04 05:59:49;;;;;;;6.55;2.63;;;;;;;9.66;66.78;97994.66;4926522;28;20201;-76
2023/01/04 06:02:23;;;;;;;3.60;1.80;;;;;;;9.86;67.24;98000.44;4918646;28;20231;-76
2023/01/04 06:04:48;;;;;;;5.00;2.42;;;;;;;9.23;68.85;98003.31;4948449;28;20199;-74
2023/01/04 06:07:14;;;;;;;4.60;2.00;;;;;;;9.38;68.59;97993.38;4947353;28;20212;-75
2023/01/04 06:09:40;;;;;;;3.83;1.67;;;;;;;9.36;68.95;97998.00;4932457;28;20626;-76
2023/01/04 06:12:06;;;;;;;5.32;2.00;;;;;;;9.36;69.18;97995.41;4931648;28;20286;-74
2023/01/04 06:14:31;;;;;;;4.10;1.98;;;;;;;9.21;69.71;98013.13;4944570;28;20323;-75
2023/01/04 06:16:57;;;;;;;4.40;1.85;;;;;;;9.51;68.69;98006.22;4932942;28;20199;-76
2023/01/04 06:19:22;;;;;;;4.43;2.00;;;;;;;8.90;71.00;98004.41;4949218;28;20187;-74
2023/01/04 06:21:48;;;;;;;5.35;2.25;;;;;;;9.40;69.22;98006.94;4948318;28;20356;-75
2023/01/04 06:24:13;;;;;;;1.83;1.10;;;;;;;9.37;69.48;98002.16;4947534;28;20251;-76
2023/01/04 06:26:38;;;;;;;3.53;1.40;;;;;;;9.50;68.73;97996.84;4944222;28;20646;-75
2023/01/04 06:29:04;;;;;;;1.65;1.10;;;;;;;9.18;70.72;98006.56;4928725;28;20654;-76
2023/01/04 06:31:29;;;;;;;2.25;1.23;;;;;;;9.56;69.61;97995.97;4916321;28;20261;-77
2023/01/04 06:33:55;;;;;;;3.85;1.30;;;;;;;9.71;68.54;97998.19;4943243;28;20110;-77
2023/01/04 06:36:21;;;;;;;3.00;1.17;;;;;;;9.27;70.75;97986.28;4950150;28;20105;-76
2023/01/04 06:38:47;;;;;;;3.67;1.15;;;;;;;9.18;70.57;97983.97;4943075;28;20363;-75
2023/01/04 06:41:13;;;;;;;3.72;1.52;;;;;;;8.76;72.32;97981.16;4928469;28;20287;-75
2023/01/04 06:43:38;;;;;;;3.35;1.20;;;;;;;9.40;70.07;97967.94;4945924;28;20195;-75
2023/01/04 06:46:03;;;;;;;3.05;1.27;;;;;;;9.55;69.47;97983.97;4931396;28;20661;-76
2023/01/04 06:48:29;;;;;;;3.67;1.52;;;;;;;9.61;69.58;97964.09;4964027;28;20291;-76
2023/01/04 06:50:54;;;;;;;3.67;1.40;;;;;;;9.50;69.52;97986.44;4949628;28;20208;-74
2023/01/04 06:53:19;;;;;;;4.70;1.80;;;;;;;9.50;69.96;97981.25;4932880;28;20588;-76
2023/01/04 06:55:45;;;;;;;3.65;1.40;;;;;;;9.24;71.15;97976.34;4942231;28;20328;-76
2023/01/04 06:58:10;;;;;;;4.68;1.88;;;;;;;9.51;69.75;97975.03;4947647;28;20212;-76
2023/01/04 07:00:36;;;;;;;2.63;1.40;;;;;;;9.72;69.13;97976.38;4948876;28;20834;-76
2023/01/04 07:03:01;;;;;;;2.85;1.48;;;;;;;9.30;70.49;97978.84;4928221;28;20743;-75
2023/01/04 07:05:26;;;;;;;4.05;1.73;;;;;;;9.34;70.99;97979.22;4945224;28;20200;-75
2023/01/04 07:07:52;;;;;;;3.33;1.67;;;;;;;9.15;71.15;97973.19;4945381;28;20333;-75
2023/01/04 07:10:17;;;;;;;4.18;1.83;;;;;;;9.67;69.77;97972.88;4966385;28;20296;-76
2023/01/04 07:12:42;;;;;;;4.28;1.63;;;;;;;9.62;70.01;97973.50;4953138;28;20200;-76
2023/01/04 07:15:08;;;;;;;4.47;1.48;;;;;;;9.45;70.40;97975.09;4924198;28;20286;-75
2023/01/04 07:17:34;;;;;;;2.95;1.67;;;;;;;9.66;70.14;97973.88;4967617;28;20757;-76
2023/01/04 07:19:59;;;;;;;3.47;1.70;;;;;;;9.88;69.28;97964.56;4916718;28;20658;-76
2023/01/04 07:22:24;;;;;;;4.07;1.50;;;;;;;9.46;70.22;97968.88;4935305;28;20207;-76
2023/01/04 07:24:50;;;;;;;3.10;1.73;;;;;;;9.45;70.49;97957.69;4948831;28;20252;-74
2023/01/04 07:27:15;;;;;;;4.78;1.85;;;;;;;9.51;71.13;97950.81;4960862;28;20281;-76
2023/01/04 07:29:43;;;;;;;3.70;1.80;;;;;;;9.46;70.38;97945.50;4922329;28;20702;-76
2023/01/04 07:32:10;;;;;;;3.15;1.52;;;;;;;9.69;70.06;97943.00;4957167;28;20226;-76
2023/01/04 07:34:36;;;;;;;5.20;1.63;;;;;;;9.57;70.65;97945.56;4921577;28;20214;-75
2023/01/04 07:37:01;;;;;;;3.05;1.60;;;;;;;9.53;70.93;97928.03;4896799;28;20102;-75
2023/01/04 07:39:26;;;;;;;2.67;1.30;;;;;;;9.30;71.92;97944.28;4922327;28;20255;-75
2023/01/04 07:41:52;;;;;;;3.45;1.48;;;;;;;9.46;71.34;97935.09;4927327;28;20196;-75
2023/01/04 07:44:17;;;;;;;3.97;1.50;;;;;;;9.41;71.46;97940.16;4907731;28;20228;-74
2023/01/04 07:46:42;;;;;;;3.85;1.70;;;;;;;9.61;70.72;97930.31;4914408;28;20274;-76
2023/01/04 07:49:13;;;;;;;4.45;1.85;;;;;;;9.98;69.88;97929.47;4914236;28;20191;-75
2023/01/04 07:51:38;;;;;;;2.80;1.58;;;;;;;9.87;69.86;97918.78;4948247;28;20307;-76
2023/01/04 07:54:04;;;;;;;3.30;1.92;;;;;;;9.69;70.68;97916.22;4927658;28;20345;-75
2023/01/04 07:56:29;;;;;;;3.83;1.60;;;;;;;9.84;69.49;97921.03;4946168;28;20699;-75
2023/01/04 07:58:56;;;;;;;4.85;2.13;;;;;;;9.94;69.84;97929.09;4907687;28;20079;-75
2023/01/04 08:01:23;;;;;;;5.00;1.52;;;;;;;10.05;69.33;97941.34;4912491;28;20198;-76
2023/01/04 08:03:48;;;;;;;3.13;1.88;;;;;;;9.90;69.96;97939.16;4948492;28;20686;-75
2023/01/04 08:06:15;;;;;;;5.22;2.00;;;;;;;10.18;69.41;97963.81;4932020;28;20280;-75
2023/01/04 08:08:40;;;;;;;2.97;1.88;;;;;;;9.97;70.27;97946.06;4945497;28;20326;-76
2023/01/04 08:11:13;;;;;;;7.25;3.10;;;;;;;10.02;69.89;97941.00;4914807;28;20425;-74
2023/01/04 08:13:39;;;;;;;4.43;1.67;;;;;;;9.81;70.65;97945.66;4947595;28;20363;-75
2023/01/04 08:16:04;;;;;;;5.28;2.17;;;;;;;9.82;70.56;97939.47;4946807;28;20260;-74
2023/01/04 08:18:30;;;;;;;3.85;1.90;;;;;;;9.96;70.07;97939.28;4926963;28;20645;-76
2023/01/04 08:21:07;;;;;;;4.43;2.55;;;;;;;10.11;69.24;97942.28;4945590;28;20310;-75
2023/01/04 08:23:34;;;;;;;4.90;1.95;;;;;;;10.12;69.60;97930.84;4948173;28;20638;-76
2023/01/04 08:26:05;;;;;;;3.13;1.90;;;;;;;10.27;69.67;97925.22;4915540;28;20300;-76
2023/01/04 08:28:31;;;;;;;4.28;2.20;;;;;;;9.85;70.25;97925.22;4942810;28;20463;-76
2023/01/04 08:30:57;;;;;;;4.13;2.25;;;;;;;9.99;69.87;97941.44;4912864;28;20732;-75
2023/01/04 08:33:22;;;;;;;3.85;2.15;;;;;;;10.38;68.88;97939.31;4925801;28;20300;-75
2023/01/04 08:35:48;;;;;;;4.90;2.45;;;;;;;10.06;70.29;97931.75;4914578;28;20110;-76
2023/01/04 08:38:13;;;;;;;4.82;1.88;;;;;;;10.09;69.88;97926.06;4959776;28;20571;-76
2023/01/04 08:40:38;;;;;;;4.72;2.88;;;;;;;9.83;70.84;97927.25;4912919;28;20205;-75
2023/01/04 08:43:04;;;;;;;4.65;2.63;;;;;;;9.82;71.15;97917.84;4948150;28;20208;-74
2023/01/04 08:45:29;;;;;;;4.47;2.03;;;;;;;9.96;70.56;97915.88;4947169;28;20445;-75
2023/01/04 08:47:54;;;;;;;3.33;2.08;;;;;;;10.34;69.47;97917.34;4947691;28;20614;-76
2023/01/04 08:50:20;;;;;;;3.80;2.03;;;;;;;9.90;70.75;97913.16;4945217;28;20208;-76
2023/01/04 08:52:46;;;;;;;4.15;2.80;;;;;;;10.31;69.25;97918.56;4946566;28;20192;-75
2023/01/04 08:55:11;;;;;;;3.72;2.10;;;;;;;10.19;69.49;97931.53;4947103;28;20658;-76
2023/01/04 08:57:37;;;;;;;3.53;2.42;;;;;;;10.33;69.44;97926.16;4920860;28;20290;-76
2023/01/04 09:00:03;;;;;;;3.90;2.72;;;;;;;9.57;72.08;97909.16;4929785;28;20280;-76
2023/01/04 09:02:28;;;;;;;3.00;2.00;;;;;;;10.15;70.22;97914.00;4928729;28;20169;-76
2023/01/04 09:04:58;;;;;;;4.25;2.75;;;;;;;10.19;69.86;97913.31;4944092;28;20657;-77
2023/01/04 09:07:24;;;;;;;4.82;2.65;;;;;;;10.32;69.88;97907.16;4946089;28;20277;-76
2023/01/04 09:09:50;;;;;;;6.10;3.63;;;;;;;9.94;70.73;97906.47;4938071;28;20253;-76
2023/01/04 09:12:15;;;;;;;3.03;2.35;;;;;;;10.37;68.74;97907.28;4963267;28;20188;-76
2023/01/04 09:14:41;;;;;;;3.90;2.45;;;;;;;10.06;69.94;97895.31;4914469;28;20749;-76
2023/01/04 09:17:06;;;;;;;6.55;2.60;;;;;;;10.22;69.53;97894.66;4913288;28;20189;-76
2023/01/04 09:19:32;;;;;;;7.20;2.42;;;;;;;10.35;69.23;97911.13;4930583;28;20282;-76
2023/01/04 09:21:57;;;;;;;3.90;2.38;;;;;;;10.25;69.98;97901.25;4946837;28;20433;-75
2023/01/04 09:24:23;;;;;;;4.38;2.38;;;;;;;10.30;69.31;97903.97;4913489;28;20219;-76
2023/01/04 09:26:48;;;;;;;3.28;2.25;;;;;;;10.51;68.26;97900.06;4927615;28;20279;-76
2023/01/04 09:29:14;;;;;;;4.68;2.60;;;;;;;10.37;69.13;97914.31;4931073;28;20229;-75
2023/01/04 09:31:39;;;;;;;4.13;2.10;;;;;;;10.49;68.56;97910.69;4916102;28;20378;-76
2023/01/04 09:34:05;;;;;;;4.20;2.10;;;;;;;10.40;68.80;97891.22;4940942;28;20180;-75
2023/01/04 09:36:31;;;;;;;7.85;2.28;;;;;;;10.28;68.97;97898.97;4966533;28;20654;-76
2023/01/04 09:38:56;;;;;;;4.40;2.90;;;;;;;10.34;69.11;97899.91;4933242;28;20218;-75
2023/01/04 09:41:24;;;;;;;3.35;2.25;;;;;;;10.35;68.76;97898.09;4949760;28;20152;-75
2023/01/04 09:43:59;;;;;;;2.97;1.98;;;;;;;10.47;68.94;97876.28;4968060;28;20294;-77
2023/01/04 09:46:55;;;;;;;5.60;2.25;;;;;;;10.75;68.44;97876.63;4965665;28;20654;-76
2023/01/04 09:49:37;;;;;;;3.58;2.38;;;;;;;10.61;68.44;97873.47;4920589;28;20522;-76
2023/01/04 09:52:03;;;;;;;3.67;1.65;;;;;;;10.63;68.81;97895.63;4950563;28;20224;-76
2023/01/04 09:54:45;;;;;;;5.22;2.15;;;;;;;10.49;68.85;97891.69;4934613;28;20204;-75
2023/01/04 09:57:30;;;;;;;4.28;2.20;;;;;;;10.78;68.13;97905.59;4966254;28;20273;-75
2023/01/04 10:00:03;;;;;;;2.28;1.70;;;;;;;10.36;69.95;97907.50;4939896;28;20291;-75
2023/01/04 10:02:48;;;;;;;2.60;1.88;;;;;;;10.59;68.96;97899.72;4948853;28;20294;-75
2023/01/04 10:05:20;;;;;;;2.55;1.73;;;;;;;10.82;68.24;97898.13;4919607;28;20165;-76
2023/01/04 10:07:45;;;;;;;2.80;2.28;;;;;;;10.43;69.06;97908.19;4911072;28;20282;-76
2023/01/04 10:10:16;;;;;;;3.58;2.13;;;;;;;10.38;69.68;97905.47;4965515;28;20573;-76
2023/01/04 10:13:06;;;;;;;4.15;1.90;;;;;;;10.67;68.86;97911.59;4933423;28;20254;-76
2023/01/04 10:15:36;;;;;;;4.22;1.83;;;;;;;10.45;69.94;97911.34;4933537;28;20270;-75
2023/01/04 10:18:08;;;;;;;3.17;2.13;;;;;;;10.86;68.80;97899.25;4964069;28;20289;-75
2023/01/04 10:21:04;;;;;;;1.70;1.52;;;;;;;10.59;69.11;97889.31;4949384;28;20724;-75
2023/01/04 10:23:59;;;;;;;1.88;1.67;;;;;;;10.50;70.35;97880.22;4930244;28;20228;-76
2023/01/04 10:26:33;;;;;;;5.55;2.28;;;;;;;10.36;70.46;97879.66;4926606;28;20284;-76
2023/01/04 10:29:30;;;;;;;2.47;1.63;;;;;;;10.66;69.43;97874.34;4919720;28;20218;-75
2023/01/04 10:32:00;;;;;;;2.47;1.83;;;;;;;10.40;70.68;97874.78;4959958;28;20674;-76
2023/01/04 10:34:28;;;;;;;3.22;1.55;;;;;;;10.47;70.36;97870.28;4934347;28;20264;-76
2023/01/04 10:36:59;;;;;;;2.33;1.75;;;;;;;10.43;70.39;97874.34;4930336;28;20243;-74
2023/01/04 10:39:28;;;;;;;2.60;1.73;;;;;;;10.86;68.97;97878.41;4926274;28;20211;-77
2023/01/04 10:42:03;;;;;;;2.45;1.55;;;;;;;10.80;68.68;97874.91;4932696;28;20203;-76
2023/01/04 10:44:47;;;;;;;2.42;1.70;;;;;;;10.30;70.34;97868.31;4931938;28;20283;-74
2023/01/04 10:47:18;;;;;;;2.55;1.42;;;;;;;10.73;69.47;97881.25;4957517;28;20689;-75
2023/01/04 10:49:48;;;;;;;3.00;1.80;;;;;;;10.80;69.11;97872.31;4916240;28;20205;-76
2023/01/04 10:52:27;;;;;;;3.83;1.90;;;;;;;10.12;71.17;97858.78;4929950;28;20198;-76
2023/01/04 10:55:00;;;;;;;3.28;1.75;;;;;;;10.74;70.07;97862.00;4935097;28;20365;-75
2023/01/04 10:57:36;;;;;;;3.63;2.15;;;;;;;11.04;68.94;97860.03;4913695;28;20283;-75
2023/01/04 11:00:05;;;;;;;4.50;1.90;;;;;;;10.85;68.83;97856.00;4940701;28;20189;-76
2023/01/04 11:02:53;;;;;;;2.80;1.73;;;;;;;10.95;69.09;97853.59;4941480;28;20265;-75
2023/01/04 11:05:40;;;;;;;3.92;2.00;;;;;;;10.90;69.32;97843.06;4949170;28;20188;-77
2023/01/04 11:08:16;;;;;;;3.65;1.92;;;;;;;10.70;69.98;97856.47;4917847;28;20284;-75
2023/01/04 11:10:46;;;;;;;2.80;1.58;;;;;;;10.77;70.16;97853.72;4912845;28;20262;-76
2023/01/04 11:13:11;;;;;;;3.22;1.67;;;;;;;10.51;70.64;97850.59;4948739;28;20207;-76
2023/01/04 11:15:37;;;;;;;2.38;1.73;;;;;;;10.84;69.69;97851.78;4908930;28;20204;-76
2023/01/04 11:18:05;;;;;;;3.25;2.10;;;;;;;10.63;70.55;97856.56;4926547;28;20174;-76
2023/01/04 11:20:30;;;;;;;3.17;1.55;;;;;;;11.08;68.82;97849.16;4912665;28;20272;-75
2023/01/04 11:23:10;;;;;;;2.53;1.90;;;;;;;11.28;68.92;97849.53;4904870;28;20289;-75
2023/01/04 11:25:44;;;;;;;3.20;2.08;;;;;;;10.85;69.56;97848.97;4948140;28;20302;-75
2023/01/04 11:28:13;;;;;;;3.10;1.85;;;;;;;11.22;69.27;97845.25;4916018;28;20628;-76
2023/01/04 11:30:49;;;;;;;3.03;2.03;;;;;;;11.03;69.70;97831.59;4922112;28;20278;-77
2023/01/04 11:33:20;;;;;;;3.13;1.65;;;;;;;10.78;70.53;97834.47;4948606;28;20653;-76
2023/01/04 11:35:57;;;;;;;3.88;2.00;;;;;;;11.06;69.44;97837.13;4965830;28;20200;-75
2023/01/04 11:38:28;;;;;;;3.25;1.90;;;;;;;11.01;70.08;97841.47;4931345;28;20232;-75
2023/01/04 11:41:01;;;;;;;2.78;1.95;;;;;;;10.57;70.99;97817.63;4914992;28;20212;-74
2023/01/04 11:43:29;;;;;;;3.13;2.42;;;;;;;11.01;69.88;97829.22;4932023;28;20571;-76
2023/01/04 11:45:57;;;;;;;5.75;2.13;;;;;;;11.04;69.97;97841.78;4945192;28;20203;-75
2023/01/04 11:48:49;;;;;;;4.10;2.25;;;;;;;11.36;68.51;97817.91;4911762;28;20223;-76
2023/01/04 11:51:27;;;;;;;5.47;1.92;;;;;;;11.07;70.01;97817.09;4927559;28;20212;-76
2023/01/04 11:53:59;;;;;;;4.80;2.35;;;;;;;11.12;69.74;97819.00;4931061;28;20327;-75
2023/01/04 11:56:28;;;;;;;3.83;2.03;;;;;;;11.00;69.59;97808.59;4942809;28;20375;-75
2023/01/04 11:59:29;;;;;;;5.18;2.35;;;;;;;11.04;69.16;97814.94;4942248;28;20623;-76
2023/01/04 12:02:15;;;;;;;5.80;2.45;;;;;;;10.72;70.94;97778.09;4850551;28;20087;-75
2023/01/04 12:04:41;;;;;;;7.25;2.38;;;;;;;10.71;70.89;97797.34;4865693;28;20464;-74
2023/01/04 12:07:33;;;;;;;3.40;2.35;;;;;;;11.03;70.06;97801.09;4836391;28;20228;-74
2023/01/04 12:10:00;;;;;;;3.60;2.30;;;;;;;11.16;69.80;97807.09;4865001;28;20213;-76
2023/01/04 12:12:29;;;;;;;3.35;2.30;;;;;;;11.29;68.98;97803.41;4872410;28;20646;-76
2023/01/04 12:14:54;;;;;;;4.03;2.22;;;;;;;11.14;69.07;97802.09;4867955;28;20666;-76
2023/01/04 12:17:22;;;;;;;4.15;2.67;;;;;;;10.80;70.16;97809.00;4837063;28;20196;-76
2023/01/04 12:19:49;;;;;;;3.25;2.28;;;;;;;10.81;69.99;97808.78;4865239;28;20195;-76
2023/01/04 12:22:39;;;;;;;4.97;2.63;;;;;;;11.32;68.98;97805.56;4859857;28;20185;-75
2023/01/04 12:25:27;;;;;;;3.83;2.50;;;;;;;10.74;70.30;97805.47;4886243;28;20653;-74
2023/01/04 12:27:56;;;;;;;3.92;2.13;;;;;;;10.99;69.90;97804.44;4870903;28;20197;-77
2023/01/04 12:30:44;;;;;;;4.60;2.20;;;;;;;11.31;68.25;97811.78;4851883;28;20212;-76
2023/01/04 12:33:28;;;;;;;3.83;2.42;;;;;;;11.31;68.38;97806.56;4884879;28;20279;-76
2023/01/04 12:36:06;;;;;;;3.38;2.20;;;;;;;11.31;68.37;97783.91;4882639;28;20702;-76